Time,TemperatureF,DewpointF,PressureIn,WindDirection,WindDirectionDegrees,WindSpeedMPH,WindSpeedGustMPH,Humidity,HourlyPrecipIn,Conditions,Clouds,dailyrainin,SolarRadiationWatts/m^2,SoftwareType,DateUTC
2013-02-07 00:04:00,31.8,25.4,30.12,WSW,240,2.3,2.3,77,0.00,CLR,,0.00,0.0,WeatherDisplay:10.37,2013-02-07 00:04:00,
2013-02-07 00:09:00,31.7,25.3,30.12,SW,236,0.0,0.7,77,0.00,CLR,,0.00,0.0,WeatherDisplay:10.37,2013-02-07 00:09:00,
2013-02-07 00:14:00,31.7,25.3,30.12,SW,236,2.3,2.3,77,0.00,CLR,,0.00,0.0,WeatherDisplay:10.37,2013-02-07 00:14:00,
2013-02-07 00:19:00,31.6,25.5,30.11,WSW,237,2.0,2.0,78,0.00,CLR,,0.00,0.0,WeatherDisplay:10.37,2013-02-07 00:19:00,
2013-02-07 00:24:00,31.5,25.4,30.11,WSW,237,2.3,2.3,78,0.00,CLR,,0.00,0.0,WeatherDisplay:10.37,2013-02-07 00:24:00,
2013-02-07 00:29:00,31.5,25.4,30.11,SW,236,3.5,3.5,78,0.00,CLR,,0.00,0.0,WeatherDisplay:10.37,2013-02-07 00:29:00,
2013-02-07 00:34:00,31.4,25.3,30.11,SW,236,1.1,1.1,78,0.00,CLR,,0.00,0.0,WeatherDisplay:10.37,2013-02-07 00:34:00,
2013-02-07 00:39:00,31.4,25.3,30.11,WSW,237,3.5,3.5,78,0.00,CLR,,0.00,0.0,WeatherDisplay:10.37,2013-02-07 00:39:00,
2013-02-07 00:44:00,31.4,25.3,30.11,SW,236,3.5,3.5,78,0.00,CLR,,0.00,0.0,WeatherDisplay:10.37,2013-02-07 00:44:00,
2013-02-07 00:49:00,31.5,25.4,30.11,SW,236,6.9,6.9,78,0.00,CLR,,0.00,0.0,WeatherDisplay:10.37,2013-02-07 00:49:00,
2013-02-07 00:55:00,31.6,25.5,30.11,SW,232,4.6,4.6,78,0.00,CLR,,0.00,0.0,WeatherDisplay:10.37,2013-02-07 00:55:00,
2013-02-07 00:59:00,31.7,25.6,30.11,SW,219,4.0,4.0,78,0.00,CLR,,0.00,0.0,WeatherDisplay:10.37,2013-02-07 00:59:00,
2013-02-07 01:05:00,31.8,25.7,30.11,SW,216,9.2,9.2,78,0.00,CLR,,0.00,0.0,WeatherDisplay:10.37,2013-02-07 01:05:00,
2013-02-07 01:10:00,31.9,25.5,30.11,SW,225,10.4,10.4,77,0.00,CLR,,0.00,0.0,WeatherDisplay:10.37,2013-02-07 01:10:00,
2013-02-07 01:15:00,32.0,25.6,30.11,SW,225,11.5,11.5,77,0.00,CLR,,0.00,0.0,WeatherDisplay:10.37,2013-02-07 01:15:00,
2013-02-07 01:20:00,32.2,25.8,30.11,WSW,237,15.0,15.0,77,0.00,CLR,,0.00,0.0,WeatherDisplay:10.37,2013-02-07 01:20:00,
2013-02-07 01:25:00,32.5,25.8,30.11,SW,224,12.7,12.7,76,0.00,CLR,,0.00,0.0,WeatherDisplay:10.37,2013-02-07 01:25:00,
2013-02-07 01:30:00,32.7,26.0,30.11,SW,234,12.7,12.7,76,0.00,CLR,,0.00,0.0,WeatherDisplay:10.37,2013-02-07 01:30:00,
2013-02-07 01:35:00,32.7,26.0,30.10,SW,217,9.2,9.2,76,0.00,CLR,,0.00,0.0,WeatherDisplay:10.37,2013-02-07 01:35:00,
2013-02-07 01:40:00,32.7,26.0,30.10,SW,232,10.4,10.4,76,0.00,CLR,,0.00,0.0,WeatherDisplay:10.37,2013-02-07 01:40:00,
2013-02-07 01:45:00,32.7,26.0,30.10,SW,227,6.9,6.9,76,0.00,CLR,,0.00,0.0,WeatherDisplay:10.37,2013-02-07 01:45:00,
2013-02-07 01:50:00,32.7,26.0,30.10,SW,218,5.8,5.8,76,0.00,CLR,,0.00,0.0,WeatherDisplay:10.37,2013-02-07 01:50:00,
2013-02-07 01:55:00,32.7,26.3,30.10,SW,218,1.1,1.1,77,0.00,CLR,,0.00,0.0,WeatherDisplay:10.37,2013-02-07 01:55:00,
2013-02-07 02:00:00,32.6,26.2,30.10,SW,218,2.3,2.3,77,0.00,CLR,,0.00,0.0,WeatherDisplay:10.37,2013-02-07 02:00:00,
2013-02-07 02:05:00,32.5,26.1,30.10,SW,218,2.3,2.3,77,0.00,CLR,,0.00,0.0,WeatherDisplay:10.37,2013-02-07 02:05:00,
2013-02-07 02:10:00,32.3,25.9,30.10,SW,219,3.5,3.5,77,0.00,CLR,,0.00,0.0,WeatherDisplay:10.37,2013-02-07 02:10:00,
2013-02-07 02:15:00,32.2,26.1,30.09,SW,218,3.5,3.5,78,0.00,CLR,,0.00,0.0,WeatherDisplay:10.37,2013-02-07 02:15:00,
2013-02-07 02:20:00,32.2,26.1,30.09,SW,219,5.8,5.8,78,0.00,CLR,,0.00,0.0,WeatherDisplay:10.37,2013-02-07 02:20:00,
2013-02-07 02:25:00,32.2,26.4,30.09,SW,225,5.8,5.8,79,0.00,CLR,,0.00,0.0,WeatherDisplay:10.37,2013-02-07 02:25:00,
2013-02-07 02:30:00,32.3,26.5,30.09,SW,223,4.6,4.6,79,0.00,CLR,,0.00,0.0,WeatherDisplay:10.37,2013-02-07 02:30:00,
2013-02-07 02:35:00,32.4,26.6,30.09,SW,225,4.6,4.6,79,0.00,CLR,,0.00,0.0,WeatherDisplay:10.37,2013-02-07 02:35:00,
2013-02-07 02:40:00,32.5,26.7,30.09,SW,225,4.0,4.0,79,0.00,CLR,,0.00,0.0,WeatherDisplay:10.37,2013-02-07 02:40:00,
2013-02-07 02:45:00,32.5,26.7,30.09,SW,225,2.3,2.3,79,0.00,CLR,,0.00,0.0,WeatherDisplay:10.37,2013-02-07 02:45:00,
2013-02-07 02:50:00,32.5,26.7,30.09,SW,225,3.5,3.5,79,0.00,CLR,,0.00,0.0,WeatherDisplay:10.37,2013-02-07 02:50:00,
2013-02-07 02:55:00,32.5,26.7,30.09,SW,225,3.5,3.5,79,0.00,CLR,,0.00,0.0,WeatherDisplay:10.37,2013-02-07 02:55:00,
2013-02-07 03:00:00,32.4,26.6,30.09,SW,223,2.3,2.3,79,0.00,CLR,,0.00,0.0,WeatherDisplay:10.37,2013-02-07 03:00:00,
2013-02-07 03:05:00,32.4,26.6,30.09,SW,224,1.1,1.1,79,0.00,CLR,,0.00,0.0,WeatherDisplay:10.37,2013-02-07 03:05:00,
2013-02-07 03:10:00,32.2,26.7,30.09,SW,225,0.0,0.0,80,0.00,CLR,,0.00,0.0,WeatherDisplay:10.37,2013-02-07 03:10:00,
2013-02-07 03:15:00,32.1,26.6,30.09,SW,224,2.3,2.3,80,0.00,CLR,,0.00,0.0,WeatherDisplay:10.37,2013-02-07 03:15:00,
2013-02-07 03:20:00,32.0,26.5,30.09,SW,223,2.3,2.3,80,0.00,CLR,,0.00,0.0,WeatherDisplay:10.37,2013-02-07 03:20:00,
2013-02-07 03:25:00,32.0,26.8,30.08,SW,223,3.5,3.5,81,0.00,CLR,,0.00,0.0,WeatherDisplay:10.37,2013-02-07 03:25:00,
2013-02-07 03:30:00,32.0,27.1,30.08,SW,225,3.5,3.5,82,0.00,CLR,,0.00,0.0,WeatherDisplay:10.37,2013-02-07 03:30:00,
2013-02-07 03:35:00,32.1,27.2,30.08,SW,226,4.6,4.6,82,0.00,CLR,,0.00,0.0,WeatherDisplay:10.37,2013-02-07 03:35:00,
2013-02-07 03:40:00,32.3,27.4,30.08,SW,228,4.6,4.6,82,0.00,CLR,,0.00,0.0,WeatherDisplay:10.37,2013-02-07 03:40:00,
2013-02-07 03:45:00,32.6,27.4,30.08,SSW,213,5.8,5.8,81,0.00,CLR,,0.00,0.0,WeatherDisplay:10.37,2013-02-07 03:45:00,
2013-02-07 03:50:00,32.7,27.2,30.08,SW,222,6.9,6.9,80,0.00,CLR,,0.00,0.0,WeatherDisplay:10.37,2013-02-07 03:50:00,
2013-02-07 03:55:00,33.1,27.6,30.07,SW,227,6.9,6.9,80,0.00,CLR,,0.00,0.0,WeatherDisplay:10.37,2013-02-07 03:55:00,
2013-02-07 04:00:00,33.3,27.5,30.07,SW,225,4.6,4.6,79,0.00,CLR,,0.00,0.0,WeatherDisplay:10.37,2013-02-07 04:00:00,
2013-02-07 04:05:00,33.4,27.6,30.07,SW,217,3.5,3.5,79,0.00,CLR,,0.00,0.0,WeatherDisplay:10.37,2013-02-07 04:05:00,
2013-02-07 04:10:00,33.5,27.7,30.07,SW,218,4.0,4.0,79,0.00,CLR,,0.00,0.0,WeatherDisplay:10.37,2013-02-07 04:10:00,
2013-02-07 04:15:00,33.5,27.7,30.07,SW,222,6.9,6.9,79,0.00,CLR,,0.00,0.0,WeatherDisplay:10.37,2013-02-07 04:15:00,
2013-02-07 04:20:00,33.6,27.8,30.07,SW,220,6.9,6.9,79,0.00,CLR,,0.00,0.0,WeatherDisplay:10.37,2013-02-07 04:20:00,
2013-02-07 04:25:00,33.6,27.8,30.07,SW,229,9.2,9.2,79,0.00,CLR,,0.00,0.0,WeatherDisplay:10.37,2013-02-07 04:25:00,
2013-02-07 04:30:00,33.7,27.9,30.07,SW,221,11.5,11.5,79,0.00,CLR,,0.00,0.0,WeatherDisplay:10.37,2013-02-07 04:30:00,
2013-02-07 04:35:00,33.7,27.9,30.07,WSW,237,10.4,10.4,79,0.00,CLR,,0.00,0.0,WeatherDisplay:10.37,2013-02-07 04:35:00,
2013-02-07 04:40:00,33.8,28.0,30.07,SW,220,10.4,10.4,79,0.00,CLR,,0.00,0.0,WeatherDisplay:10.37,2013-02-07 04:40:00,
2013-02-07 04:45:00,34.0,28.2,30.07,SW,223,6.9,6.9,79,0.00,CLR,,0.00,0.0,WeatherDisplay:10.37,2013-02-07 04:45:00,
2013-02-07 04:50:00,34.0,28.2,30.07,SW,223,4.6,4.6,79,0.00,CLR,,0.00,0.0,WeatherDisplay:10.37,2013-02-07 04:50:00,
2013-02-07 04:55:00,34.0,28.2,30.07,SW,217,10.4,10.4,79,0.00,CLR,,0.00,0.0,WeatherDisplay:10.37,2013-02-07 04:55:00,
2013-02-07 05:00:00,34.0,28.2,30.07,SW,217,5.8,5.8,79,0.00,CLR,,0.00,0.0,WeatherDisplay:10.37,2013-02-07 05:00:00,
2013-02-07 05:05:00,33.9,28.1,30.07,SW,218,5.8,5.8,79,0.00,CLR,,0.00,0.0,WeatherDisplay:10.37,2013-02-07 05:05:00,
2013-02-07 05:10:00,34.0,28.2,30.07,SSW,211,6.9,6.9,79,0.00,CLR,,0.00,0.0,WeatherDisplay:10.37,2013-02-07 05:10:00,
2013-02-07 05:15:00,34.0,28.2,30.07,SW,226,6.9,6.9,79,0.00,CLR,,0.00,0.0,WeatherDisplay:10.37,2013-02-07 05:15:00,
2013-02-07 05:20:00,34.1,28.3,30.07,SW,219,5.8,5.8,79,0.00,CLR,,0.00,0.0,WeatherDisplay:10.37,2013-02-07 05:20:00,
2013-02-07 05:25:00,34.2,28.4,30.06,SW,215,6.9,6.9,79,0.00,CLR,,0.00,0.0,WeatherDisplay:10.37,2013-02-07 05:25:00,
2013-02-07 05:30:00,34.2,28.4,30.06,SSW,211,5.8,5.8,79,0.00,CLR,,0.00,0.0,WeatherDisplay:10.37,2013-02-07 05:30:00,
2013-02-07 05:35:00,34.3,28.5,30.06,SW,219,9.2,9.2,79,0.00,CLR,,0.00,0.0,WeatherDisplay:10.37,2013-02-07 05:35:00,
2013-02-07 05:40:00,34.3,28.5,30.06,SW,223,6.9,6.9,79,0.00,CLR,,0.00,0.0,WeatherDisplay:10.37,2013-02-07 05:40:00,
2013-02-07 05:45:00,34.4,28.2,30.06,SW,222,6.9,6.9,78,0.00,CLR,,0.00,0.0,WeatherDisplay:10.37,2013-02-07 05:45:00,
2013-02-07 05:50:00,34.5,28.3,30.06,SW,229,4.6,4.6,78,0.00,CLR,,0.00,0.0,WeatherDisplay:10.37,2013-02-07 05:50:00,
2013-02-07 05:55:00,34.5,28.3,30.06,SW,228,8.0,8.0,78,0.00,CLR,,0.00,0.0,WeatherDisplay:10.37,2013-02-07 05:55:00,
2013-02-07 06:00:00,34.5,28.3,30.05,SW,229,3.5,3.5,78,0.00,CLR,,0.00,0.0,WeatherDisplay:10.37,2013-02-07 06:00:00,
2013-02-07 06:05:00,34.4,28.6,30.05,SW,235,3.5,3.5,79,0.00,CLR,,0.00,0.0,WeatherDisplay:10.37,2013-02-07 06:05:00,
2013-02-07 06:10:00,34.4,28.6,30.05,SW,235,0.0,0.2,79,0.00,CLR,,0.00,0.0,WeatherDisplay:10.37,2013-02-07 06:10:00,
2013-02-07 06:15:00,34.3,28.5,30.05,SW,236,1.1,0.0,79,0.00,CLR,,0.00,0.0,WeatherDisplay:10.37,2013-02-07 06:15:00,
2013-02-07 06:20:00,34.2,28.4,30.04,SW,235,0.0,0.0,79,0.00,CLR,,0.00,0.0,WeatherDisplay:10.37,2013-02-07 06:20:00,
2013-02-07 06:25:00,34.1,28.3,30.04,SW,235,0.0,0.0,79,0.00,CLR,,0.00,0.0,WeatherDisplay:10.37,2013-02-07 06:25:00,
2013-02-07 06:30:00,34.0,28.2,30.05,SW,235,0.0,0.0,79,0.00,CLR,,0.00,0.0,WeatherDisplay:10.37,2013-02-07 06:30:00,
2013-02-07 06:35:00,33.9,28.4,30.05,SW,235,0.0,0.0,80,0.00,CLR,,0.00,0.0,WeatherDisplay:10.37,2013-02-07 06:35:00,
2013-02-07 06:40:00,33.8,28.3,30.05,SW,235,0.0,0.0,80,0.00,CLR,,0.00,0.0,WeatherDisplay:10.37,2013-02-07 06:40:00,
2013-02-07 06:45:00,33.7,28.2,30.04,SW,235,0.0,0.0,80,0.00,CLR,,0.00,0.0,WeatherDisplay:10.37,2013-02-07 06:45:00,
2013-02-07 06:50:00,33.6,28.4,30.04,SW,235,0.0,0.0,81,0.00,CLR,,0.00,0.0,WeatherDisplay:10.37,2013-02-07 06:50:00,
2013-02-07 06:56:00,33.5,28.3,30.04,SW,236,0.0,0.0,81,0.00,CLR,,0.00,0.0,WeatherDisplay:10.37,2013-02-07 06:56:00,
2013-02-07 07:01:00,33.5,28.3,30.05,SW,236,0.0,0.0,81,0.00,CLR,,0.00,0.0,WeatherDisplay:10.37,2013-02-07 07:01:00,
2013-02-07 07:06:00,33.4,28.2,30.04,SW,235,2.3,2.3,81,0.00,CLR,,0.00,0.0,WeatherDisplay:10.37,2013-02-07 07:06:00,
2013-02-07 07:11:00,33.3,28.1,30.05,SW,235,1.1,0.0,81,0.00,CLR,,0.00,0.0,WeatherDisplay:10.37,2013-02-07 07:11:00,
2013-02-07 07:16:00,33.2,28.3,30.04,SW,234,3.5,3.5,82,0.00,CLR,,0.00,0.0,WeatherDisplay:10.37,2013-02-07 07:16:00,
2013-02-07 07:21:00,33.2,28.3,30.04,SW,236,4.0,4.0,82,0.00,CLR,,0.00,0.0,WeatherDisplay:10.37,2013-02-07 07:21:00,
2013-02-07 07:26:00,33.3,28.4,30.04,SW,229,5.8,5.8,82,0.00,CLR,,0.00,0.0,WeatherDisplay:10.37,2013-02-07 07:26:00,
2013-02-07 07:31:00,33.5,28.9,30.04,SW,229,5.0,5.0,83,0.00,OVC,,0.00,0.0,WeatherDisplay:10.37,2013-02-07 07:31:00,
2013-02-07 07:36:00,33.7,28.8,30.04,WSW,238,6.9,6.9,82,0.00,OVC,,0.00,0.0,WeatherDisplay:10.37,2013-02-07 07:36:00,
2013-02-07 07:41:00,34.0,29.1,30.04,SW,227,5.8,5.8,82,0.00,OVC,,0.00,0.0,WeatherDisplay:10.37,2013-02-07 07:41:00,
2013-02-07 07:46:00,34.2,29.0,30.04,SW,223,5.8,5.8,81,0.00,OVC,,0.00,0.0,WeatherDisplay:10.37,2013-02-07 07:46:00,
2013-02-07 07:51:00,34.3,29.1,30.04,SW,227,6.9,6.9,81,0.00,OVC,,0.00,5.0,WeatherDisplay:10.37,2013-02-07 07:51:00,
2013-02-07 07:56:00,34.4,29.2,30.04,SW,216,3.5,3.5,81,0.00,OVC,,0.00,7.0,WeatherDisplay:10.37,2013-02-07 07:56:00,
2013-02-07 08:01:00,34.5,29.3,30.04,SW,215,5.0,5.0,81,0.00,OVC,,0.00,5.0,WeatherDisplay:10.37,2013-02-07 08:01:00,
2013-02-07 08:06:00,34.5,29.3,30.04,SSW,207,5.8,5.8,81,0.00,CLR,,0.00,5.0,WeatherDisplay:10.37,2013-02-07 08:06:00,
2013-02-07 08:11:00,34.6,29.4,30.04,SW,217,5.8,5.8,81,0.00,SCT,,0.00,5.0,WeatherDisplay:10.37,2013-02-07 08:11:00,
2013-02-07 08:16:00,34.7,29.5,30.03,SW,221,5.8,5.8,81,0.00,BKN,,0.00,5.0,WeatherDisplay:10.37,2013-02-07 08:16:00,
2013-02-07 08:21:00,34.8,29.6,30.03,SW,225,6.9,6.9,81,0.00,BKN,,0.00,9.0,WeatherDisplay:10.37,2013-02-07 08:21:00,
2013-02-07 08:26:00,34.8,29.6,30.03,SW,225,6.9,6.9,81,0.00,BKN,,0.00,11.0,WeatherDisplay:10.37,2013-02-07 08:26:00,
2013-02-07 08:31:00,34.9,29.7,30.03,SW,229,8.1,8.1,81,0.00,BKN,,0.00,14.0,WeatherDisplay:10.37,2013-02-07 08:31:00,
2013-02-07 08:36:00,35.0,29.8,30.03,SW,225,4.6,4.6,81,0.00,BKN,,0.00,16.0,WeatherDisplay:10.37,2013-02-07 08:36:00,
2013-02-07 08:41:00,35.1,29.9,30.03,SW,223,6.9,6.9,81,0.00,BKN,,0.00,19.0,WeatherDisplay:10.37,2013-02-07 08:41:00,
2013-02-07 08:46:00,35.1,29.9,30.03,SSW,210,4.6,4.6,81,0.00,BKN,,0.00,26.0,WeatherDisplay:10.37,2013-02-07 08:46:00,
2013-02-07 08:51:00,35.1,29.9,30.03,SW,219,5.0,5.0,81,0.00,SCT,,0.00,37.0,WeatherDisplay:10.37,2013-02-07 08:51:00,
2013-02-07 08:56:00,35.2,30.0,30.03,SW,219,3.5,3.5,81,0.00,SCT,,0.00,47.0,WeatherDisplay:10.37,2013-02-07 08:56:00,
2013-02-07 09:01:00,35.2,30.0,30.03,SW,218,3.5,3.5,81,0.00,SCT,,0.00,53.0,WeatherDisplay:10.37,2013-02-07 09:01:00,
2013-02-07 09:06:00,35.2,30.0,30.03,SW,218,3.5,3.5,81,0.00,SCT,,0.00,56.0,WeatherDisplay:10.37,2013-02-07 09:06:00,
2013-02-07 09:11:00,35.2,30.0,30.03,SW,218,3.5,3.5,81,0.00,SCT,,0.00,53.0,WeatherDisplay:10.37,2013-02-07 09:11:00,
2013-02-07 09:16:00,35.3,30.1,30.03,SW,215,4.0,4.0,81,0.00,SCT,,0.00,54.0,WeatherDisplay:10.37,2013-02-07 09:16:00,
2013-02-07 09:21:00,35.3,30.4,30.03,SW,215,3.5,3.5,82,0.00,SCT,,0.00,51.0,WeatherDisplay:10.37,2013-02-07 09:21:00,
2013-02-07 09:27:00,35.3,30.4,30.03,SW,215,0.0,0.0,82,0.00,SCT,,0.00,49.0,WeatherDisplay:10.37,2013-02-07 09:27:00,
2013-02-07 09:32:00,35.4,30.5,30.03,SW,215,0.0,0.0,82,0.00,BKN,,0.00,49.0,WeatherDisplay:10.37,2013-02-07 09:32:00,
2013-02-07 09:37:00,35.4,30.5,30.03,SW,217,3.0,3.0,82,0.00,BKN,,0.00,49.0,WeatherDisplay:10.37,2013-02-07 09:37:00,
2013-02-07 09:42:00,35.4,30.5,30.03,SW,217,3.5,3.5,82,0.00,BKN,,0.00,56.0,WeatherDisplay:10.37,2013-02-07 09:42:00,
2013-02-07 09:47:00,35.4,30.5,30.02,SW,217,3.5,3.5,82,0.00,BKN,,0.00,67.0,WeatherDisplay:10.37,2013-02-07 09:47:00,
2013-02-07 09:52:00,35.4,30.5,30.03,SW,217,3.5,3.5,82,0.00,SCT,,0.00,79.0,WeatherDisplay:10.37,2013-02-07 09:52:00,
2013-02-07 09:57:00,35.5,30.8,30.02,SW,217,3.0,3.0,83,0.00,SCT,,0.00,104.0,WeatherDisplay:10.37,2013-02-07 09:57:00,
2013-02-07 10:02:00,35.6,30.9,30.02,SW,217,3.5,0.0,83,0.00,SCT,,0.00,128.0,WeatherDisplay:10.37,2013-02-07 10:02:00,
2013-02-07 10:07:00,35.7,31.0,30.02,SW,217,1.1,1.1,83,0.00,FEW,,0.00,141.0,WeatherDisplay:10.37,2013-02-07 10:07:00,
2013-02-07 10:12:00,35.8,31.1,30.02,SW,217,0.0,0.0,83,0.00,CLR,,0.00,165.0,WeatherDisplay:10.37,2013-02-07 10:12:00,
2013-02-07 10:17:00,36.0,31.3,30.02,SW,217,0.0,0.0,83,0.00,CLR,,0.00,146.0,WeatherDisplay:10.37,2013-02-07 10:17:00,
2013-02-07 10:22:00,36.1,31.4,30.02,SW,217,3.5,3.5,83,0.00,CLR,,0.00,151.0,WeatherDisplay:10.37,2013-02-07 10:22:00,
2013-02-07 10:27:00,36.3,31.6,30.02,SW,217,4.6,4.6,83,0.00,CLR,,0.00,158.0,WeatherDisplay:10.37,2013-02-07 10:27:00,
2013-02-07 10:32:00,36.5,31.5,30.01,SW,217,2.3,2.3,82,0.00,CLR,,0.00,151.0,WeatherDisplay:10.37,2013-02-07 10:32:00,
2013-02-07 10:37:00,36.7,31.4,30.01,SW,217,3.5,3.5,81,0.00,CLR,,0.00,232.0,WeatherDisplay:10.37,2013-02-07 10:37:00,
2013-02-07 10:42:00,37.0,31.4,30.01,SW,217,4.6,4.6,80,0.00,CLR,,0.00,118.0,WeatherDisplay:10.37,2013-02-07 10:42:00,
2013-02-07 10:47:00,37.2,31.6,30.01,SW,217,2.0,2.0,80,0.00,FEW,,0.00,116.0,WeatherDisplay:10.37,2013-02-07 10:47:00,
2013-02-07 10:52:00,37.4,31.8,30.02,SW,217,3.0,3.0,80,0.00,SCT,,0.00,116.0,WeatherDisplay:10.37,2013-02-07 10:52:00,
2013-02-07 10:57:00,37.5,31.9,30.02,SW,217,2.3,2.3,80,0.00,SCT,,0.00,116.0,WeatherDisplay:10.37,2013-02-07 10:57:00,
2013-02-07 11:02:00,37.6,32.0,30.01,SW,217,3.0,0.0,80,0.00,SCT,,0.00,120.0,WeatherDisplay:10.37,2013-02-07 11:02:00,
2013-02-07 11:07:00,37.7,32.1,30.01,SW,217,0.0,0.0,80,0.00,SCT,,0.00,127.0,WeatherDisplay:10.37,2013-02-07 11:07:00,
2013-02-07 11:12:00,37.8,32.2,30.01,SW,217,0.0,0.0,80,0.00,SCT,,0.00,127.0,WeatherDisplay:10.37,2013-02-07 11:12:00,
2013-02-07 11:17:00,37.9,32.3,30.01,SW,217,3.5,3.5,80,0.00,SCT,,0.00,128.0,WeatherDisplay:10.37,2013-02-07 11:17:00,
2013-02-07 11:22:00,38.0,32.1,30.01,SW,217,1.1,0.0,79,0.00,SCT,,0.00,130.0,WeatherDisplay:10.37,2013-02-07 11:22:00,
2013-02-07 11:27:00,38.1,32.2,30.01,SW,217,2.3,2.3,79,0.00,SCT,,0.00,139.0,WeatherDisplay:10.37,2013-02-07 11:27:00,
2013-02-07 11:32:00,38.2,31.9,30.01,SW,217,0.0,0.0,78,0.00,SCT,,0.00,132.0,WeatherDisplay:10.37,2013-02-07 11:32:00,
2013-02-07 11:37:00,38.3,32.0,30.01,SW,217,2.3,2.3,78,0.00,SCT,,0.00,128.0,WeatherDisplay:10.37,2013-02-07 11:37:00,
2013-02-07 11:42:00,38.4,32.1,30.01,SW,217,1.1,1.1,78,0.00,SCT,,0.00,137.0,WeatherDisplay:10.37,2013-02-07 11:42:00,
2013-02-07 11:47:00,38.4,32.1,30.01,SW,217,1.1,0.0,78,0.00,SCT,,0.00,144.0,WeatherDisplay:10.37,2013-02-07 11:47:00,
2013-02-07 11:52:00,38.5,31.9,30.00,SW,217,2.3,2.3,77,0.00,SCT,,0.00,165.0,WeatherDisplay:10.37,2013-02-07 11:52:00,
2013-02-07 11:57:00,38.6,32.0,30.00,SW,217,1.1,1.1,77,0.00,SCT,,0.00,162.0,WeatherDisplay:10.37,2013-02-07 11:57:00,
2013-02-07 12:02:00,38.7,32.4,30.00,SW,217,2.0,2.0,78,0.00,SCT,,0.00,141.0,WeatherDisplay:10.37,2013-02-07 12:02:00,
2013-02-07 12:07:00,38.9,32.9,30.00,SW,217,2.3,0.0,79,0.00,SCT,,0.00,130.0,WeatherDisplay:10.37,2013-02-07 12:07:00,
2013-02-07 12:12:00,39.0,32.7,30.00,SW,217,3.5,3.5,78,0.00,SCT,,0.00,121.0,WeatherDisplay:10.37,2013-02-07 12:12:00,
2013-02-07 12:17:00,39.1,32.5,30.00,SW,218,1.0,1.0,77,0.00,SCT,,0.00,120.0,WeatherDisplay:10.37,2013-02-07 12:17:00,
2013-02-07 12:22:00,39.2,32.6,30.00,SW,217,2.3,2.3,77,0.00,SCT,,0.00,120.0,WeatherDisplay:10.37,2013-02-07 12:22:00,
2013-02-07 12:27:00,39.2,32.6,30.00,SW,217,0.0,0.0,77,0.00,BKN,,0.00,114.0,WeatherDisplay:10.37,2013-02-07 12:27:00,
2013-02-07 12:32:00,39.3,34.0,30.00,SW,218,3.5,3.5,81,0.00,BKN,,0.00,118.0,WeatherDisplay:10.37,2013-02-07 12:32:00,
2013-02-07 12:37:00,39.3,32.7,30.00,SW,217,1.1,1.1,77,0.00,BKN,,0.00,127.0,WeatherDisplay:10.37,2013-02-07 12:37:00,
2013-02-07 12:42:00,39.4,32.5,29.99,SW,217,3.5,3.5,76,0.00,SCT,,0.00,132.0,WeatherDisplay:10.37,2013-02-07 12:42:00,
2013-02-07 12:47:00,39.4,32.8,30.00,SW,217,0.0,0.0,77,0.00,SCT,,0.00,132.0,WeatherDisplay:10.37,2013-02-07 12:47:00,
2013-02-07 12:52:00,39.6,33.3,29.99,SW,218,2.3,2.3,78,0.00,SCT,,0.00,134.0,WeatherDisplay:10.37,2013-02-07 12:52:00,
2013-02-07 12:57:00,39.7,33.4,29.99,SW,217,0.0,0.0,78,0.00,SCT,,0.00,142.0,WeatherDisplay:10.37,2013-02-07 12:57:00,
2013-02-07 13:02:00,39.8,33.2,29.99,SW,217,3.0,3.0,77,0.00,SCT,,0.00,132.0,WeatherDisplay:10.37,2013-02-07 13:02:00,
2013-02-07 13:07:00,39.9,32.6,29.99,SW,217,3.5,3.5,75,0.00,SCT,,0.00,125.0,WeatherDisplay:10.37,2013-02-07 13:07:00,
2013-02-07 13:12:00,39.9,32.3,29.99,SW,217,0.0,0.0,74,0.00,SCT,,0.00,121.0,WeatherDisplay:10.37,2013-02-07 13:12:00,
2013-02-07 13:17:00,40.0,32.7,29.99,SW,217,0.0,0.0,75,0.00,SCT,,0.00,118.0,WeatherDisplay:10.37,2013-02-07 13:17:00,
2013-02-07 13:22:00,40.1,32.8,29.99,SW,217,0.0,0.0,75,0.00,SCT,,0.00,120.0,WeatherDisplay:10.37,2013-02-07 13:22:00,
2013-02-07 13:27:00,40.2,32.9,29.99,SW,217,3.5,3.5,75,0.00,SCT,,0.00,120.0,WeatherDisplay:10.37,2013-02-07 13:27:00,
2013-02-07 13:32:00,40.2,32.9,29.99,SW,223,3.5,3.5,75,0.00,SCT,,0.00,123.0,WeatherDisplay:10.37,2013-02-07 13:32:00,
2013-02-07 13:37:00,40.3,33.0,29.99,SW,223,2.3,0.0,75,0.00,SCT,,0.00,120.0,WeatherDisplay:10.37,2013-02-07 13:37:00,
2013-02-07 13:42:00,40.3,33.0,29.99,SW,223,0.0,0.0,75,0.00,SCT,,0.00,121.0,WeatherDisplay:10.37,2013-02-07 13:42:00,
2013-02-07 13:47:00,40.3,33.0,29.98,SW,223,0.0,0.0,75,0.00,SCT,,0.00,127.0,WeatherDisplay:10.37,2013-02-07 13:47:00,
2013-02-07 13:52:00,40.4,33.1,29.98,SW,223,0.0,0.0,75,0.00,SCT,,0.00,128.0,WeatherDisplay:10.37,2013-02-07 13:52:00,
2013-02-07 13:57:00,40.5,33.2,29.98,SW,223,2.3,0.0,75,0.00,SCT,,0.00,114.0,WeatherDisplay:10.37,2013-02-07 13:57:00,
2013-02-07 14:02:00,40.5,33.2,29.99,SW,223,2.3,2.3,75,0.00,SCT,,0.00,111.0,WeatherDisplay:10.37,2013-02-07 14:02:00,
2013-02-07 14:08:00,40.5,32.9,29.99,SW,223,0.0,0.0,74,0.00,SCT,,0.00,111.0,WeatherDisplay:10.37,2013-02-07 14:08:00,
2013-02-07 14:13:00,40.5,33.2,29.99,SW,223,0.0,0.0,75,0.00,SCT,,0.00,114.0,WeatherDisplay:10.37,2013-02-07 14:13:00,
2013-02-07 14:18:00,40.4,33.1,29.99,SW,223,2.3,2.3,75,0.00,SCT,,0.00,120.0,WeatherDisplay:10.37,2013-02-07 14:18:00,
2013-02-07 14:23:00,40.4,33.1,29.98,SW,223,0.0,1.0,75,0.00,SCT,,0.00,118.0,WeatherDisplay:10.37,2013-02-07 14:23:00,
2013-02-07 14:28:00,40.3,33.0,29.99,SW,224,2.3,2.3,75,0.00,SCT,,0.00,109.0,WeatherDisplay:10.37,2013-02-07 14:28:00,
2013-02-07 14:33:00,40.3,33.0,29.99,SW,223,1.1,1.1,75,0.00,SCT,,0.00,97.0,WeatherDisplay:10.37,2013-02-07 14:33:00,
2013-02-07 14:38:00,40.2,32.9,29.99,SW,223,0.0,0.0,75,0.00,SCT,,0.00,79.0,WeatherDisplay:10.37,2013-02-07 14:38:00,
2013-02-07 14:43:00,40.2,33.2,29.99,SW,222,0.0,0.2,76,0.00,BKN,,0.00,70.0,WeatherDisplay:10.37,2013-02-07 14:43:00,
2013-02-07 14:48:00,40.2,33.2,29.99,SW,223,0.0,0.0,76,0.00,BKN,,0.00,69.0,WeatherDisplay:10.37,2013-02-07 14:48:00,
2013-02-07 14:53:00,40.2,33.2,29.99,SW,224,0.0,0.0,76,0.00,BKN,,0.00,70.0,WeatherDisplay:10.37,2013-02-07 14:53:00,
2013-02-07 14:58:00,40.1,33.1,29.99,SW,224,2.3,2.3,76,0.00,BKN,,0.00,72.0,WeatherDisplay:10.37,2013-02-07 14:58:00,
2013-02-07 15:03:00,40.0,33.4,29.99,SW,223,0.0,0.0,77,0.00,BKN,,0.00,70.0,WeatherDisplay:10.37,2013-02-07 15:03:00,
2013-02-07 15:08:00,39.9,33.3,29.99,SW,224,0.0,0.0,77,0.00,BKN,,0.00,67.0,WeatherDisplay:10.37,2013-02-07 15:08:00,
2013-02-07 15:13:00,39.9,33.3,29.99,SW,225,0.0,0.1,77,0.00,BKN,,0.00,62.0,WeatherDisplay:10.37,2013-02-07 15:13:00,
2013-02-07 15:18:00,39.8,32.8,29.99,SW,225,2.3,0.0,76,0.00,BKN,,0.00,53.0,WeatherDisplay:10.37,2013-02-07 15:18:00,
2013-02-07 15:23:00,39.7,32.8,29.99,SW,225,0.0,0.0,76,0.00,BKN,,0.00,46.0,WeatherDisplay:10.37,2013-02-07 15:23:00,
2013-02-07 15:28:00,39.6,32.3,30.00,SW,225,1.1,0.0,75,0.00,BKN,,0.00,37.0,WeatherDisplay:10.37,2013-02-07 15:28:00,
2013-02-07 15:33:00,39.5,32.6,30.00,SW,224,0.0,0.0,76,0.00,BKN,,0.00,37.0,WeatherDisplay:10.37,2013-02-07 15:33:00,
2013-02-07 15:38:00,39.4,32.5,29.99,SW,225,0.0,0.0,76,0.00,BKN,,0.00,39.0,WeatherDisplay:10.37,2013-02-07 15:38:00,
2013-02-07 15:43:00,39.3,32.4,30.00,SW,225,0.0,0.0,76,0.00,BKN,,0.00,39.0,WeatherDisplay:10.37,2013-02-07 15:43:00,
2013-02-07 15:48:00,39.2,32.6,30.00,SW,225,1.1,1.1,77,0.00,BKN,,0.00,40.0,WeatherDisplay:10.37,2013-02-07 15:48:00,
2013-02-07 15:53:00,39.1,32.5,30.00,SW,225,2.3,2.3,77,0.00,BKN,,0.00,42.0,WeatherDisplay:10.37,2013-02-07 15:53:00,
2013-02-07 15:58:00,39.0,32.4,30.00,SW,225,0.0,0.0,77,0.00,BKN,,0.00,37.0,WeatherDisplay:10.37,2013-02-07 15:58:00,
2013-02-07 16:03:00,38.9,32.3,30.00,SW,227,3.0,3.0,77,0.00,BKN,,0.00,32.0,WeatherDisplay:10.37,2013-02-07 16:03:00,
2013-02-07 16:08:00,38.8,31.9,30.00,SW,227,1.1,0.0,76,0.00,BKN,,0.00,28.0,WeatherDisplay:10.37,2013-02-07 16:08:00,
2013-02-07 16:13:00,38.6,32.0,30.01,SW,228,2.3,2.3,77,0.00,BKN,,0.00,23.0,WeatherDisplay:10.37,2013-02-07 16:13:00,
2013-02-07 16:18:00,38.5,31.9,30.01,SW,228,2.3,2.3,77,0.00,BKN,,0.00,16.0,WeatherDisplay:10.37,2013-02-07 16:18:00,
2013-02-07 16:23:00,38.4,31.8,30.01,SW,227,3.5,3.5,77,0.00,BKN,,0.00,14.0,WeatherDisplay:10.37,2013-02-07 16:23:00,
2013-02-07 16:28:00,38.2,31.6,30.00,SW,229,2.3,2.3,77,0.00,BKN,,0.00,12.0,WeatherDisplay:10.37,2013-02-07 16:28:00,
2013-02-07 16:33:00,38.1,31.5,30.00,SW,228,0.0,0.0,77,0.00,BKN,,0.00,11.0,WeatherDisplay:10.37,2013-02-07 16:33:00,
2013-02-07 16:38:00,38.0,31.4,30.00,SW,229,0.0,0.0,77,0.00,BKN,,0.00,7.0,WeatherDisplay:10.37,2013-02-07 16:38:00,
2013-02-07 16:43:00,37.9,31.7,30.00,SW,228,0.0,0.0,78,0.00,BKN,,0.00,5.0,WeatherDisplay:10.37,2013-02-07 16:43:00,
2013-02-07 16:48:00,37.8,31.2,30.00,SW,227,0.0,0.0,77,0.00,BKN,,0.00,5.0,WeatherDisplay:10.37,2013-02-07 16:48:00,
2013-02-07 16:53:00,37.6,31.4,30.01,SW,229,1.1,1.1,78,0.00,OVC,,0.00,0.0,WeatherDisplay:10.37,2013-02-07 16:53:00,
2013-02-07 16:58:00,37.6,31.4,30.01,SW,229,0.0,0.0,78,0.00,OVC,,0.00,0.0,WeatherDisplay:10.37,2013-02-07 16:58:00,
2013-02-07 17:03:00,37.4,31.2,30.01,SW,229,0.0,0.0,78,0.00,OVC,,0.00,0.0,WeatherDisplay:10.37,2013-02-07 17:03:00,
2013-02-07 17:08:00,37.3,31.1,30.01,SW,227,0.0,0.0,78,0.00,OVC,,0.00,0.0,WeatherDisplay:10.37,2013-02-07 17:08:00,
2013-02-07 17:13:00,37.2,31.0,30.01,SW,229,0.0,0.0,78,0.00,OVC,,0.00,0.0,WeatherDisplay:10.37,2013-02-07 17:13:00,
2013-02-07 17:18:00,37.0,30.8,30.01,SW,229,0.0,0.1,78,0.00,OVC,,0.00,0.0,WeatherDisplay:10.37,2013-02-07 17:18:00,
2013-02-07 17:23:00,36.9,30.7,30.01,SW,229,0.0,0.0,78,0.00,OVC,,0.00,0.0,WeatherDisplay:10.37,2013-02-07 17:23:00,
2013-02-07 17:28:00,36.7,30.8,30.01,SW,229,0.0,0.0,79,0.00,OVC,,0.00,0.0,WeatherDisplay:10.37,2013-02-07 17:28:00,
2013-02-07 17:33:00,36.6,30.7,30.01,SW,229,0.0,0.0,79,0.00,CLR,,0.00,0.0,WeatherDisplay:10.37,2013-02-07 17:33:00,
2013-02-07 17:38:00,36.5,30.6,30.01,SW,228,0.0,0.0,79,0.00,CLR,,0.00,0.0,WeatherDisplay:10.37,2013-02-07 17:38:00,
2013-02-07 17:43:00,36.4,30.8,30.01,SW,229,0.0,0.0,80,0.00,CLR,,0.00,0.0,WeatherDisplay:10.37,2013-02-07 17:43:00,
2013-02-07 17:48:00,36.3,30.7,30.01,SW,227,0.0,0.0,80,0.00,CLR,,0.00,0.0,WeatherDisplay:10.37,2013-02-07 17:48:00,
2013-02-07 17:53:00,36.2,30.6,30.01,SW,229,0.0,0.0,80,0.00,CLR,,0.00,0.0,WeatherDisplay:10.37,2013-02-07 17:53:00,
2013-02-07 17:58:00,36.1,30.8,30.01,SW,228,0.0,0.0,81,0.00,CLR,,0.00,0.0,WeatherDisplay:10.37,2013-02-07 17:58:00,
2013-02-07 18:03:00,36.0,30.7,30.02,SW,228,0.0,0.0,81,0.00,CLR,,0.00,0.0,WeatherDisplay:10.37,2013-02-07 18:03:00,
2013-02-07 18:08:00,36.0,30.7,30.02,SW,229,0.0,0.0,81,0.00,CLR,,0.00,0.0,WeatherDisplay:10.37,2013-02-07 18:08:00,
2013-02-07 18:13:00,35.9,30.6,30.02,SW,229,0.0,0.0,81,0.00,CLR,,0.00,0.0,WeatherDisplay:10.37,2013-02-07 18:13:00,
2013-02-07 18:18:00,35.9,30.6,30.02,SW,228,1.1,0.0,81,0.00,CLR,,0.00,0.0,WeatherDisplay:10.37,2013-02-07 18:18:00,
2013-02-07 18:23:00,35.8,30.8,30.02,SW,229,0.0,0.0,82,0.00,CLR,,0.00,0.0,WeatherDisplay:10.37,2013-02-07 18:23:00,
2013-02-07 18:28:00,35.8,30.8,30.02,SW,229,0.0,0.0,82,0.00,CLR,,0.00,0.0,WeatherDisplay:10.37,2013-02-07 18:28:00,
2013-02-07 18:33:00,35.7,30.7,30.02,SW,228,0.0,0.0,82,0.00,CLR,,0.00,0.0,WeatherDisplay:10.37,2013-02-07 18:33:00,
2013-02-07 18:38:00,35.7,30.7,30.02,SW,228,2.3,2.3,82,0.00,CLR,,0.00,0.0,WeatherDisplay:10.37,2013-02-07 18:38:00,
2013-02-07 18:43:00,35.7,30.7,30.02,SW,227,0.0,0.0,82,0.00,CLR,,0.00,0.0,WeatherDisplay:10.37,2013-02-07 18:43:00,
2013-02-07 18:48:00,35.6,30.9,30.02,SW,228,0.0,0.0,83,0.00,CLR,,0.00,0.0,WeatherDisplay:10.37,2013-02-07 18:48:00,
2013-02-07 18:53:00,35.6,30.9,30.03,SW,228,0.0,0.0,83,0.00,CLR,,0.00,0.0,WeatherDisplay:10.37,2013-02-07 18:53:00,
2013-02-07 18:58:00,35.6,30.9,30.03,SW,228,0.0,0.0,83,0.00,CLR,,0.00,0.0,WeatherDisplay:10.37,2013-02-07 18:58:00,
2013-02-07 19:03:00,35.6,30.9,30.03,SW,229,0.0,0.0,83,0.00,CLR,,0.00,0.0,WeatherDisplay:10.37,2013-02-07 19:03:00,
2013-02-07 19:08:00,35.6,30.9,30.03,SW,227,1.1,0.0,83,0.00,CLR,,0.00,0.0,WeatherDisplay:10.37,2013-02-07 19:08:00,
2013-02-07 19:14:00,35.6,30.9,30.03,SW,229,3.5,3.5,83,0.00,CLR,,0.00,0.0,WeatherDisplay:10.37,2013-02-07 19:14:00,
2013-02-07 19:19:00,35.6,30.9,30.03,SW,228,0.0,0.0,83,0.00,CLR,,0.00,0.0,WeatherDisplay:10.37,2013-02-07 19:19:00,
2013-02-07 19:24:00,35.6,30.9,30.03,SW,229,2.3,2.3,83,0.00,CLR,,0.00,0.0,WeatherDisplay:10.37,2013-02-07 19:24:00,
2013-02-07 19:29:00,35.6,30.9,30.03,SW,227,3.5,3.5,83,0.00,CLR,,0.00,0.0,WeatherDisplay:10.37,2013-02-07 19:29:00,
2013-02-07 19:34:00,35.6,30.9,30.03,SW,227,3.0,3.0,83,0.00,CLR,,0.00,0.0,WeatherDisplay:10.37,2013-02-07 19:34:00,
2013-02-07 19:39:00,35.6,30.9,30.03,SW,228,6.0,6.0,83,0.00,CLR,,0.00,0.0,WeatherDisplay:10.37,2013-02-07 19:39:00,
2013-02-07 19:44:00,35.6,30.9,30.03,SW,228,5.0,5.0,83,0.00,CLR,,0.00,0.0,WeatherDisplay:10.37,2013-02-07 19:44:00,
2013-02-07 19:49:00,35.7,31.0,30.03,SW,228,3.5,3.5,83,0.00,CLR,,0.00,0.0,WeatherDisplay:10.37,2013-02-07 19:49:00,
2013-02-07 19:54:00,35.7,31.0,30.03,SW,229,4.0,4.0,83,0.00,CLR,,0.00,0.0,WeatherDisplay:10.37,2013-02-07 19:54:00,
2013-02-07 19:59:00,35.8,31.1,30.03,SW,228,2.3,2.3,83,0.00,CLR,,0.00,0.0,WeatherDisplay:10.37,2013-02-07 19:59:00,
2013-02-07 20:04:00,35.8,31.1,30.04,SW,229,3.5,0.0,83,0.00,CLR,,0.00,0.0,WeatherDisplay:10.37,2013-02-07 20:04:00,
2013-02-07 20:09:00,35.8,30.8,30.04,SW,229,1.1,0.0,82,0.00,CLR,,0.00,0.0,WeatherDisplay:10.37,2013-02-07 20:09:00,
2013-02-07 20:14:00,35.8,30.8,30.04,SW,228,1.1,0.0,82,0.00,CLR,,0.00,0.0,WeatherDisplay:10.37,2013-02-07 20:14:00,
2013-02-07 20:19:00,35.9,30.9,30.04,SW,228,0.0,0.0,82,0.00,CLR,,0.00,0.0,WeatherDisplay:10.37,2013-02-07 20:19:00,
2013-02-07 20:24:00,35.9,30.9,30.04,SW,227,3.5,3.5,82,0.00,CLR,,0.00,0.0,WeatherDisplay:10.37,2013-02-07 20:24:00,
2013-02-07 20:29:00,35.9,30.9,30.04,SW,226,4.6,4.6,82,0.00,CLR,,0.00,0.0,WeatherDisplay:10.37,2013-02-07 20:29:00,
2013-02-07 20:34:00,36.0,31.0,30.04,SW,227,3.5,3.5,82,0.00,CLR,,0.00,0.0,WeatherDisplay:10.37,2013-02-07 20:34:00,
2013-02-07 20:39:00,36.0,31.0,30.05,SW,227,3.0,3.0,82,0.00,CLR,,0.00,0.0,WeatherDisplay:10.37,2013-02-07 20:39:00,
2013-02-07 20:44:00,36.1,31.1,30.05,SW,227,3.5,3.5,82,0.00,CLR,,0.00,0.0,WeatherDisplay:10.37,2013-02-07 20:44:00,
2013-02-07 20:49:00,36.1,31.1,30.05,SW,226,0.0,0.0,82,0.00,CLR,,0.00,0.0,WeatherDisplay:10.37,2013-02-07 20:49:00,
2013-02-07 20:54:00,36.1,31.1,30.05,SW,227,0.0,0.0,82,0.00,CLR,,0.00,0.0,WeatherDisplay:10.37,2013-02-07 20:54:00,
2013-02-07 20:59:00,36.1,31.1,30.04,SW,227,2.3,2.3,82,0.00,CLR,,0.00,0.0,WeatherDisplay:10.37,2013-02-07 20:59:00,
2013-02-07 21:04:00,36.1,31.1,30.04,SW,227,3.5,3.5,82,0.00,CLR,,0.00,0.0,WeatherDisplay:10.37,2013-02-07 21:04:00,
2013-02-07 21:09:00,36.1,31.1,30.04,SW,229,3.5,3.5,82,0.00,CLR,,0.00,0.0,WeatherDisplay:10.37,2013-02-07 21:09:00,
2013-02-07 21:14:00,36.2,31.2,30.04,SW,229,3.5,3.5,82,0.00,CLR,,0.00,0.0,WeatherDisplay:10.37,2013-02-07 21:14:00,
2013-02-07 21:19:00,36.2,31.2,30.04,SW,229,4.6,4.6,82,0.00,CLR,,0.00,0.0,WeatherDisplay:10.37,2013-02-07 21:19:00,
2013-02-07 21:24:00,36.3,31.3,30.04,SW,229,3.5,3.5,82,0.00,CLR,,0.00,0.0,WeatherDisplay:10.37,2013-02-07 21:24:00,
2013-02-07 21:29:00,36.4,31.4,30.04,SW,229,3.5,3.5,82,0.00,CLR,,0.00,0.0,WeatherDisplay:10.37,2013-02-07 21:29:00,
2013-02-07 21:34:00,36.4,31.4,30.04,SW,229,5.0,5.0,82,0.00,CLR,,0.00,0.0,WeatherDisplay:10.37,2013-02-07 21:34:00,
2013-02-07 21:39:00,36.4,31.4,30.04,SW,229,4.6,4.6,82,0.00,CLR,,0.00,0.0,WeatherDisplay:10.37,2013-02-07 21:39:00,
2013-02-07 21:44:00,36.5,31.2,30.04,SW,230,5.8,5.8,81,0.00,CLR,,0.00,0.0,WeatherDisplay:10.37,2013-02-07 21:44:00,
2013-02-07 21:49:00,36.6,31.3,30.05,SW,231,5.8,5.8,81,0.00,CLR,,0.00,0.0,WeatherDisplay:10.37,2013-02-07 21:49:00,
2013-02-07 21:54:00,36.7,31.4,30.05,SW,232,4.6,4.6,81,0.00,CLR,,0.00,0.0,WeatherDisplay:10.37,2013-02-07 21:54:00,
2013-02-07 21:59:00,36.7,31.7,30.04,SW,233,5.0,5.0,82,0.00,CLR,,0.00,0.0,WeatherDisplay:10.37,2013-02-07 21:59:00,
2013-02-07 22:04:00,36.8,31.8,30.05,SW,232,6.9,6.9,82,0.00,CLR,,0.00,0.0,WeatherDisplay:10.37,2013-02-07 22:04:00,
2013-02-07 22:09:00,36.8,32.1,30.05,SW,229,7.0,7.0,83,0.00,CLR,,0.00,0.0,WeatherDisplay:10.37,2013-02-07 22:09:00,
2013-02-07 22:14:00,36.8,32.1,30.05,SW,236,9.2,9.2,83,0.00,CLR,,0.00,0.0,WeatherDisplay:10.37,2013-02-07 22:14:00,
2013-02-07 22:19:00,36.8,32.1,30.04,SW,225,10.4,10.4,83,0.00,CLR,,0.00,0.0,WeatherDisplay:10.37,2013-02-07 22:19:00,
2013-02-07 22:24:00,36.8,32.4,30.05,SW,226,10.4,10.4,84,0.00,CLR,,0.00,0.0,WeatherDisplay:10.37,2013-02-07 22:24:00,
2013-02-07 22:29:00,36.7,32.3,30.04,SW,234,4.0,4.0,84,0.00,CLR,,0.00,0.0,WeatherDisplay:10.37,2013-02-07 22:29:00,
2013-02-07 22:34:00,36.7,32.6,30.04,SW,230,4.6,4.6,85,0.00,CLR,,0.00,0.0,WeatherDisplay:10.37,2013-02-07 22:34:00,
2013-02-07 22:39:00,36.6,32.5,30.05,SW,227,6.9,6.9,85,0.00,CLR,,0.00,0.0,WeatherDisplay:10.37,2013-02-07 22:39:00,
2013-02-07 22:44:00,36.5,32.4,30.05,SW,226,4.6,4.6,85,0.00,CLR,,0.01,0.0,WeatherDisplay:10.37,2013-02-07 22:44:00,
2013-02-07 22:49:00,36.5,32.7,30.05,SW,226,3.5,3.5,86,0.01,RA,,0.01,0.0,WeatherDisplay:10.37,2013-02-07 22:49:00,
2013-02-07 22:54:00,36.4,32.6,30.05,SW,227,3.5,3.5,86,0.01,RA,,0.01,0.0,WeatherDisplay:10.37,2013-02-07 22:54:00,
2013-02-07 22:59:00,36.3,32.5,30.05,SW,221,3.5,3.5,86,0.01,CLR,,0.01,0.0,WeatherDisplay:10.37,2013-02-07 22:59:00,
2013-02-07 23:04:00,36.3,32.5,30.05,SW,215,3.5,3.5,86,0.01,CLR,,0.01,0.0,WeatherDisplay:10.37,2013-02-07 23:04:00,
2013-02-07 23:09:00,36.2,32.4,30.05,SW,219,4.0,4.0,86,0.01,CLR,,0.01,0.0,WeatherDisplay:10.37,2013-02-07 23:09:00,
2013-02-07 23:14:00,36.1,32.6,30.05,SW,221,3.5,3.6,87,0.01,CLR,,0.01,0.0,WeatherDisplay:10.37,2013-02-07 23:14:00,
2013-02-07 23:19:00,36.1,32.6,30.05,SW,225,6.0,6.0,87,0.01,CLR,,0.01,0.0,WeatherDisplay:10.37,2013-02-07 23:19:00,
2013-02-07 23:24:00,36.0,32.5,30.05,SW,225,6.9,6.9,87,0.01,CLR,,0.01,0.0,WeatherDisplay:10.37,2013-02-07 23:24:00,
2013-02-07 23:29:00,36.0,32.5,30.05,SW,224,5.0,5.0,87,0.01,CLR,,0.01,0.0,WeatherDisplay:10.37,2013-02-07 23:29:00,
2013-02-07 23:34:00,36.0,32.5,30.05,SW,223,6.9,6.9,87,0.01,CLR,,0.01,0.0,WeatherDisplay:10.37,2013-02-07 23:34:00,
2013-02-07 23:39:00,36.1,32.6,30.05,SW,229,8.1,8.1,87,0.01,CLR,,0.01,0.0,WeatherDisplay:10.37,2013-02-07 23:39:00,
2013-02-07 23:44:00,36.1,32.6,30.06,SW,228,3.5,0.0,87,0.01,CLR,,0.01,0.0,WeatherDisplay:10.37,2013-02-07 23:44:00,
2013-02-07 23:49:00,36.0,32.5,30.05,SW,229,0.0,0.1,87,0.00,CLR,,0.01,0.0,WeatherDisplay:10.37,2013-02-07 23:49:00,
2013-02-07 23:54:00,36.0,32.8,30.05,SW,227,1.1,0.0,88,0.00,CLR,,0.01,0.0,WeatherDisplay:10.37,2013-02-07 23:54:00,
2013-02-07 23:59:00,36.0,32.8,30.06,SW,228,0.0,0.0,88,0.00,CLR,,0.01,0.0,WeatherDisplay:10.37,2013-02-07 23:59:00,